Log in

Login to your account

Username *
Password *
Remember Me
User Registration
User Profile
(optional)
Cancel

Nous contacter

 Téléphone : +33 (0)4 79 54 41 81

Coordonnées détaillées et accès : cliquez ici

 
LFLB °C
    Ferienhaus Ostsee
[source: ADDS]
METAR
LFLB 292100Z AUTO 35011KT 9999 -RA OVC030 05/03 Q1018 =
TAF LFLB 291100Z 2912/3012 36013KT 9999 BKN030 TEMPO 2912/2922 4000 RA OVC020 TEMPO 3007/3012 36015G25KT
TAF
TAF LFLB 291100Z 2912/3012 36013KT 9999 BKN030 TEMPO 2912/2922 4000 RA OVC020 TEMPO 3007/3012 36015G25KT =
SR / SS: 05:21 / 18:01 UTC (Lever/Coucher du soleil le 2020-03-29)
JSN Boot template designed by JoomlaShine.com